This is the latest recevied weather packets stored in our database for station/object I5EKX-13. If no packets are shown the sender has not sent any weather packets the latest 10 day(s).
| Time | Temp. | Humidity | Pressure | Rain* | Wind** | Luminosity | Snow |
|---|---|---|---|---|---|---|---|
| 1777366352 | 22.78° C | 61% | 1012.2 hPa | - | - | - | - |
| 1777365148 | 22.78° C | 62% | 1012.1 hPa | - | - | - | - |
| 1777363944 | 18.89° C | 72% | 1012.1 hPa | - | - | - | - |
| 1777362749 | 20° C | 67% | 1012.1 hPa | - | - | - | - |
| 1777361537 | 19.44° C | 71% | 1012.2 hPa | - | - | - | - |
| 1777360332 | 18.33° C | 79% | 1012.3 hPa | - | - | - | - |
| 1777359128 | 16.67° C | 82% | 1012.2 hPa | - | - | - | - |
| 1777356720 | 16.11° C | 84% | 1012.1 hPa | - | - | - | - |
| 1777355516 | 15° C | 84% | 1011.9 hPa | - | - | - | - |
| 1777354312 | 14.44° C | 84% | 1011.8 hPa | - | - | - | - |
| 1777353108 | 13.33° C | 83% | 1011.6 hPa | - | - | - | - |
| 1777351904 | 11.67° C | 85% | 1011.4 hPa | - | - | - | - |
| 1777350700 | 11.11° C | 83% | 1011.3 hPa | - | - | - | - |
| 1777349497 | 11.11° C | 85% | 1011.3 hPa | - | - | - | - |
| 1777348292 | 11.67° C | 83% | 1011.2 hPa | - | - | - | - |
| 1777347088 | 10° C | 82% | 1011.3 hPa | - | - | - | - |
| 1777345884 | 10° C | 84% | 1011.5 hPa | - | - | - | - |
| 1777344680 | 9.44° C | 83% | 1011.5 hPa | - | - | - | - |
| 1777343477 | 10° C | 82% | 1011.8 hPa | - | - | - | - |
| 1777342272 | 10.56° C | 82% | 1011.8 hPa | - | - | - | - |
| 1777341069 | 10.56° C | 83% | 1011.9 hPa | - | - | - | - |
| 1777339865 | 10° C | 83% | 1011.9 hPa | - | - | - | - |
| 1777338661 | 10° C | 83% | 1012 hPa | - | - | - | - |
| 1777337457 | 11.11° C | 83% | 1012.1 hPa | - | - | - | - |
| 1777336253 | 10.56° C | 83% | 1012.3 hPa | - | - | - | - |
* Rain since midnight (hover to see other rain measurements)
** Current wind speed in m/s (hover to see current wind gust speed)